sensor_id;sensor_type;location;lat;lon;timestamp;P1;durP1;ratioP1;P2;durP2;ratioP2
27495;SDS011;14929;51.336;9.416;2022-09-17T00:01:32;0.47;;;0.47;;
27495;SDS011;14929;51.336;9.416;2022-09-17T00:03:59;1.45;;;0.75;;
27495;SDS011;14929;51.336;9.416;2022-09-17T00:06:29;0.60;;;0.60;;
27495;SDS011;14929;51.336;9.416;2022-09-17T00:08:57;0.60;;;0.60;;
27495;SDS011;14929;51.336;9.416;2022-09-17T00:11:26;0.80;;;0.80;;
27495;SDS011;14929;51.336;9.416;2022-09-17T00:13:59;1.05;;;0.60;;
27495;SDS011;14929;51.336;9.416;2022-09-17T00:16:29;0.38;;;0.30;;
27495;SDS011;14929;51.336;9.416;2022-09-17T00:19:00;0.60;;;0.60;;
27495;SDS011;14929;51.336;9.416;2022-09-17T00:21:29;1.63;;;0.60;;
27495;SDS011;14929;51.336;9.416;2022-09-17T00:23:57;2.75;;;0.93;;
27495;SDS011;14929;51.336;9.416;2022-09-17T00:26:27;0.32;;;0.32;;
27495;SDS011;14929;51.336;9.416;2022-09-17T00:28:55;0.55;;;0.55;;
27495;SDS011;14929;51.336;9.416;2022-09-17T00:31:25;2.03;;;0.75;;
27495;SDS011;14929;51.336;9.416;2022-09-17T00:33:54;0.50;;;0.50;;
27495;SDS011;14929;51.336;9.416;2022-09-17T00:36:23;0.35;;;0.35;;
27495;SDS011;14929;51.336;9.416;2022-09-17T00:38:51;0.43;;;0.43;;
27495;SDS011;14929;51.336;9.416;2022-09-17T00:41:20;0.50;;;0.50;;
27495;SDS011;14929;51.336;9.416;2022-09-17T00:43:50;0.30;;;0.30;;
27495;SDS011;14929;51.336;9.416;2022-09-17T00:46:24;2.75;;;0.93;;
27495;SDS011;14929;51.336;9.416;2022-09-17T00:48:57;0.40;;;0.38;;
27495;SDS011;14929;51.336;9.416;2022-09-17T00:51:27;1.25;;;0.57;;
27495;SDS011;14929;51.336;9.416;2022-09-17T00:54:00;0.30;;;0.30;;
27495;SDS011;14929;51.336;9.416;2022-09-17T00:56:30;0.85;;;0.70;;
27495;SDS011;14929;51.336;9.416;2022-09-17T00:58:59;0.60;;;0.60;;
27495;SDS011;14929;51.336;9.416;2022-09-17T01:01:29;0.50;;;0.50;;
27495;SDS011;14929;51.336;9.416;2022-09-17T01:03:57;0.50;;;0.50;;
27495;SDS011;14929;51.336;9.416;2022-09-17T01:06:27;0.90;;;0.55;;
27495;SDS011;14929;51.336;9.416;2022-09-17T01:09:06;1.20;;;0.57;;
27495;SDS011;14929;51.336;9.416;2022-09-17T01:15:02;0.88;;;0.55;;
27495;SDS011;14929;51.336;9.416;2022-09-17T01:17:44;0.70;;;0.55;;
27495;SDS011;14929;51.336;9.416;2022-09-17T01:24:11;0.30;;;0.30;;
27495;SDS011;14929;51.336;9.416;2022-09-17T01:33:47;0.60;;;0.60;;
27495;SDS011;14929;51.336;9.416;2022-09-17T01:36:26;0.43;;;0.43;;
27495;SDS011;14929;51.336;9.416;2022-09-17T01:39:06;0.60;;;0.60;;
27495;SDS011;14929;51.336;9.416;2022-09-17T01:41:44;0.75;;;0.52;;
27495;SDS011;14929;51.336;9.416;2022-09-17T01:44:19;0.77;;;0.60;;
27495;SDS011;14929;51.336;9.416;2022-09-17T01:46:53;0.88;;;0.60;;
27495;SDS011;14929;51.336;9.416;2022-09-17T01:49:24;0.40;;;0.40;;
27495;SDS011;14929;51.336;9.416;2022-09-17T01:51:52;0.82;;;0.70;;
27495;SDS011;14929;51.336;9.416;2022-09-17T01:54:21;1.08;;;0.60;;
27495;SDS011;14929;51.336;9.416;2022-09-17T01:56:54;0.50;;;0.50;;
27495;SDS011;14929;51.336;9.416;2022-09-17T01:59:26;0.85;;;0.70;;
27495;SDS011;14929;51.336;9.416;2022-09-17T02:01:59;2.13;;;0.85;;
27495;SDS011;14929;51.336;9.416;2022-09-17T02:04:32;1.75;;;0.70;;
27495;SDS011;14929;51.336;9.416;2022-09-17T02:07:04;2.60;;;1.02;;
27495;SDS011;14929;51.336;9.416;2022-09-17T02:09:35;0.73;;;0.73;;
27495;SDS011;14929;51.336;9.416;2022-09-17T02:12:06;0.90;;;0.85;;
27495;SDS011;14929;51.336;9.416;2022-09-17T02:14:38;0.95;;;0.70;;
27495;SDS011;14929;51.336;9.416;2022-09-17T02:17:11;0.80;;;0.70;;
27495;SDS011;14929;51.336;9.416;2022-09-17T02:19:45;1.02;;;0.82;;
27495;SDS011;14929;51.336;9.416;2022-09-17T02:22:14;0.98;;;0.80;;
27495;SDS011;14929;51.336;9.416;2022-09-17T02:24:49;1.08;;;0.90;;
27495;SDS011;14929;51.336;9.416;2022-09-17T02:27:26;1.27;;;0.90;;
27495;SDS011;14929;51.336;9.416;2022-09-17T02:30:02;1.08;;;1.02;;
27495;SDS011;14929;51.336;9.416;2022-09-17T02:32:33;0.98;;;0.93;;
27495;SDS011;14929;51.336;9.416;2022-09-17T02:35:00;1.20;;;0.90;;
27495;SDS011;14929;51.336;9.416;2022-09-17T02:37:28;1.63;;;1.27;;
27495;SDS011;14929;51.336;9.416;2022-09-17T02:39:55;1.92;;;1.77;;
27495;SDS011;14929;51.336;9.416;2022-09-17T02:42:25;2.22;;;1.60;;
27495;SDS011;14929;51.336;9.416;2022-09-17T02:44:59;1.60;;;1.10;;
27495;SDS011;14929;51.336;9.416;2022-09-17T02:47:45;2.08;;;1.40;;
27495;SDS011;14929;51.336;9.416;2022-09-17T02:50:26;1.95;;;1.08;;
27495;SDS011;14929;51.336;9.416;2022-09-17T02:53:10;1.50;;;1.17;;
27495;SDS011;14929;51.336;9.416;2022-09-17T02:55:55;3.10;;;2.13;;
27495;SDS011;14929;51.336;9.416;2022-09-17T02:58:29;0.98;;;0.93;;
27495;SDS011;14929;51.336;9.416;2022-09-17T03:01:00;1.85;;;1.13;;
27495;SDS011;14929;51.336;9.416;2022-09-17T03:03:33;2.60;;;1.35;;
27495;SDS011;14929;51.336;9.416;2022-09-17T03:06:04;1.95;;;1.23;;
27495;SDS011;14929;51.336;9.416;2022-09-17T03:08:33;2.00;;;1.05;;
27495;SDS011;14929;51.336;9.416;2022-09-17T03:11:04;3.88;;;1.65;;
27495;SDS011;14929;51.336;9.416;2022-09-17T03:13:33;2.83;;;1.50;;
27495;SDS011;14929;51.336;9.416;2022-09-17T03:16:01;1.25;;;1.13;;
27495;SDS011;14929;51.336;9.416;2022-09-17T03:18:29;2.35;;;1.45;;
27495;SDS011;14929;51.336;9.416;2022-09-17T03:20:57;3.17;;;1.55;;
27495;SDS011;14929;51.336;9.416;2022-09-17T03:23:25;1.30;;;0.98;;
27495;SDS011;14929;51.336;9.416;2022-09-17T03:25:53;1.73;;;1.30;;
27495;SDS011;14929;51.336;9.416;2022-09-17T03:28:20;2.15;;;1.10;;
27495;SDS011;14929;51.336;9.416;2022-09-17T03:30:49;2.22;;;1.20;;
27495;SDS011;14929;51.336;9.416;2022-09-17T03:33:17;2.13;;;1.25;;
27495;SDS011;14929;51.336;9.416;2022-09-17T03:35:45;4.00;;;1.30;;
27495;SDS011;14929;51.336;9.416;2022-09-17T03:38:14;3.38;;;1.63;;
27495;SDS011;14929;51.336;9.416;2022-09-17T03:40:42;5.82;;;1.70;;
27495;SDS011;14929;51.336;9.416;2022-09-17T03:43:09;2.50;;;1.35;;
27495;SDS011;14929;51.336;9.416;2022-09-17T03:45:37;3.63;;;1.60;;
27495;SDS011;14929;51.336;9.416;2022-09-17T03:48:04;3.05;;;1.60;;
27495;SDS011;14929;51.336;9.416;2022-09-17T03:50:32;4.80;;;2.00;;
27495;SDS011;14929;51.336;9.416;2022-09-17T03:52:59;4.07;;;2.33;;
27495;SDS011;14929;51.336;9.416;2022-09-17T03:55:28;3.75;;;1.52;;
27495;SDS011;14929;51.336;9.416;2022-09-17T03:57:56;2.00;;;1.73;;
27495;SDS011;14929;51.336;9.416;2022-09-17T04:00:23;4.57;;;2.15;;
27495;SDS011;14929;51.336;9.416;2022-09-17T04:02:51;2.58;;;2.25;;
27495;SDS011;14929;51.336;9.416;2022-09-17T04:05:18;3.45;;;2.00;;
27495;SDS011;14929;51.336;9.416;2022-09-17T04:07:46;4.35;;;1.88;;
27495;SDS011;14929;51.336;9.416;2022-09-17T04:10:13;1.83;;;1.55;;
27495;SDS011;14929;51.336;9.416;2022-09-17T04:12:50;7.63;;;2.22;;
27495;SDS011;14929;51.336;9.416;2022-09-17T04:15:17;3.08;;;1.80;;
27495;SDS011;14929;51.336;9.416;2022-09-17T04:17:44;4.38;;;2.05;;
27495;SDS011;14929;51.336;9.416;2022-09-17T04:20:12;6.28;;;2.17;;
27495;SDS011;14929;51.336;9.416;2022-09-17T04:22:40;6.78;;;2.95;;
27495;SDS011;14929;51.336;9.416;2022-09-17T04:25:07;2.70;;;1.80;;
27495;SDS011;14929;51.336;9.416;2022-09-17T04:27:36;10.40;;;2.63;;
27495;SDS011;14929;51.336;9.416;2022-09-17T04:30:05;3.35;;;2.15;;
27495;SDS011;14929;51.336;9.416;2022-09-17T04:32:33;8.15;;;3.35;;
27495;SDS011;14929;51.336;9.416;2022-09-17T04:35:01;5.47;;;2.45;;
27495;SDS011;14929;51.336;9.416;2022-09-17T04:37:28;5.53;;;2.00;;
27495;SDS011;14929;51.336;9.416;2022-09-17T04:39:56;7.65;;;3.22;;
27495;SDS011;14929;51.336;9.416;2022-09-17T04:42:24;5.70;;;2.50;;
27495;SDS011;14929;51.336;9.416;2022-09-17T04:44:51;5.15;;;2.65;;
27495;SDS011;14929;51.336;9.416;2022-09-17T04:47:20;5.90;;;2.25;;
27495;SDS011;14929;51.336;9.416;2022-09-17T04:49:47;10.13;;;2.80;;
27495;SDS011;14929;51.336;9.416;2022-09-17T04:52:15;8.43;;;2.63;;
27495;SDS011;14929;51.336;9.416;2022-09-17T04:54:43;4.72;;;2.20;;
27495;SDS011;14929;51.336;9.416;2022-09-17T04:57:10;5.93;;;2.95;;
27495;SDS011;14929;51.336;9.416;2022-09-17T04:59:38;8.95;;;3.08;;
27495;SDS011;14929;51.336;9.416;2022-09-17T05:02:05;6.75;;;2.78;;
27495;SDS011;14929;51.336;9.416;2022-09-17T05:04:34;5.32;;;2.45;;
27495;SDS011;14929;51.336;9.416;2022-09-17T05:07:01;5.55;;;3.10;;
27495;SDS011;14929;51.336;9.416;2022-09-17T05:09:29;4.18;;;2.10;;
27495;SDS011;14929;51.336;9.416;2022-09-17T05:11:56;6.05;;;2.80;;
27495;SDS011;14929;51.336;9.416;2022-09-17T05:14:24;9.88;;;3.47;;
27495;SDS011;14929;51.336;9.416;2022-09-17T05:16:51;5.15;;;2.10;;
27495;SDS011;14929;51.336;9.416;2022-09-17T05:19:19;6.88;;;2.90;;
27495;SDS011;14929;51.336;9.416;2022-09-17T05:21:48;5.10;;;3.03;;
27495;SDS011;14929;51.336;9.416;2022-09-17T05:24:15;4.13;;;2.67;;
27495;SDS011;14929;51.336;9.416;2022-09-17T05:26:42;5.68;;;3.72;;
27495;SDS011;14929;51.336;9.416;2022-09-17T05:29:10;4.40;;;2.55;;
27495;SDS011;14929;51.336;9.416;2022-09-17T05:31:37;5.72;;;2.72;;
27495;SDS011;14929;51.336;9.416;2022-09-17T05:34:05;8.40;;;2.42;;
27495;SDS011;14929;51.336;9.416;2022-09-17T05:36:33;6.80;;;3.28;;
27495;SDS011;14929;51.336;9.416;2022-09-17T05:39:02;4.22;;;2.20;;
27495;SDS011;14929;51.336;9.416;2022-09-17T05:41:29;7.22;;;2.80;;
27495;SDS011;14929;51.336;9.416;2022-09-17T05:43:57;4.70;;;2.83;;
27495;SDS011;14929;51.336;9.416;2022-09-17T05:46:24;6.38;;;2.88;;
27495;SDS011;14929;51.336;9.416;2022-09-17T05:48:54;6.28;;;2.55;;
27495;SDS011;14929;51.336;9.416;2022-09-17T05:51:22;8.98;;;4.57;;
27495;SDS011;14929;51.336;9.416;2022-09-17T05:53:49;4.75;;;2.30;;
27495;SDS011;14929;51.336;9.416;2022-09-17T05:56:18;4.22;;;2.28;;
27495;SDS011;14929;51.336;9.416;2022-09-17T05:58:46;6.35;;;2.95;;
27495;SDS011;14929;51.336;9.416;2022-09-17T06:01:13;2.70;;;2.15;;
27495;SDS011;14929;51.336;9.416;2022-09-17T06:03:41;4.85;;;3.55;;
27495;SDS011;14929;51.336;9.416;2022-09-17T06:06:08;5.10;;;1.90;;
27495;SDS011;14929;51.336;9.416;2022-09-17T06:08:35;5.68;;;2.72;;
27495;SDS011;14929;51.336;9.416;2022-09-17T06:11:03;7.60;;;2.67;;
27495;SDS011;14929;51.336;9.416;2022-09-17T06:13:33;3.38;;;1.70;;
27495;SDS011;14929;51.336;9.416;2022-09-17T06:16:01;4.10;;;2.40;;
27495;SDS011;14929;51.336;9.416;2022-09-17T06:18:29;5.28;;;1.80;;
27495;SDS011;14929;51.336;9.416;2022-09-17T06:20:58;5.30;;;2.10;;
27495;SDS011;14929;51.336;9.416;2022-09-17T06:23:29;8.88;;;1.83;;
27495;SDS011;14929;51.336;9.416;2022-09-17T06:25:59;5.00;;;2.22;;
27495;SDS011;14929;51.336;9.416;2022-09-17T06:28:27;6.35;;;2.25;;
27495;SDS011;14929;51.336;9.416;2022-09-17T06:31:01;9.55;;;2.30;;
27495;SDS011;14929;51.336;9.416;2022-09-17T06:33:30;4.70;;;2.50;;
27495;SDS011;14929;51.336;9.416;2022-09-17T06:35:58;2.28;;;1.23;;
27495;SDS011;14929;51.336;9.416;2022-09-17T06:38:28;4.15;;;2.05;;
27495;SDS011;14929;51.336;9.416;2022-09-17T06:40:57;4.55;;;1.95;;
27495;SDS011;14929;51.336;9.416;2022-09-17T06:43:25;5.30;;;2.17;;
27495;SDS011;14929;51.336;9.416;2022-09-17T06:45:52;3.17;;;1.42;;
27495;SDS011;14929;51.336;9.416;2022-09-17T06:48:22;2.95;;;1.80;;
27495;SDS011;14929;51.336;9.416;2022-09-17T06:50:50;7.30;;;2.00;;
27495;SDS011;14929;51.336;9.416;2022-09-17T06:53:18;5.07;;;1.92;;
27495;SDS011;14929;51.336;9.416;2022-09-17T06:55:46;5.57;;;1.90;;
27495;SDS011;14929;51.336;9.416;2022-09-17T06:58:14;8.10;;;2.10;;
27495;SDS011;14929;51.336;9.416;2022-09-17T07:00:41;4.45;;;2.30;;
27495;SDS011;14929;51.336;9.416;2022-09-17T07:03:09;6.18;;;1.63;;
27495;SDS011;14929;51.336;9.416;2022-09-17T07:05:38;10.70;;;3.10;;
27495;SDS011;14929;51.336;9.416;2022-09-17T07:08:05;2.85;;;1.55;;
27495;SDS011;14929;51.336;9.416;2022-09-17T07:10:33;6.40;;;2.20;;
27495;SDS011;14929;51.336;9.416;2022-09-17T07:13:00;4.85;;;1.63;;
27495;SDS011;14929;51.336;9.416;2022-09-17T07:15:28;7.35;;;3.10;;
27495;SDS011;14929;51.336;9.416;2022-09-17T07:17:56;5.85;;;1.95;;
27495;SDS011;14929;51.336;9.416;2022-09-17T07:20:24;5.40;;;2.33;;
27495;SDS011;14929;51.336;9.416;2022-09-17T07:22:56;5.05;;;1.73;;
27495;SDS011;14929;51.336;9.416;2022-09-17T07:25:24;5.57;;;2.22;;
27495;SDS011;14929;51.336;9.416;2022-09-17T07:27:51;4.78;;;2.10;;
27495;SDS011;14929;51.336;9.416;2022-09-17T07:30:20;5.53;;;1.92;;
27495;SDS011;14929;51.336;9.416;2022-09-17T07:32:48;2.22;;;1.20;;
27495;SDS011;14929;51.336;9.416;2022-09-17T07:35:15;3.95;;;1.90;;
27495;SDS011;14929;51.336;9.416;2022-09-17T07:37:43;3.42;;;1.83;;
27495;SDS011;14929;51.336;9.416;2022-09-17T07:40:12;6.88;;;4.15;;
27495;SDS011;14929;51.336;9.416;2022-09-17T07:42:40;5.18;;;1.60;;
27495;SDS011;14929;51.336;9.416;2022-09-17T07:45:07;3.47;;;2.45;;
27495;SDS011;14929;51.336;9.416;2022-09-17T07:47:38;5.47;;;2.38;;
27495;SDS011;14929;51.336;9.416;2022-09-17T07:50:06;12.52;;;2.60;;
27495;SDS011;14929;51.336;9.416;2022-09-17T07:52:35;8.45;;;2.15;;
27495;SDS011;14929;51.336;9.416;2022-09-17T07:55:02;9.00;;;3.58;;
27495;SDS011;14929;51.336;9.416;2022-09-17T07:57:32;5.53;;;2.60;;
27495;SDS011;14929;51.336;9.416;2022-09-17T08:00:00;6.25;;;1.85;;
27495;SDS011;14929;51.336;9.416;2022-09-17T08:02:29;6.15;;;2.15;;
27495;SDS011;14929;51.336;9.416;2022-09-17T08:04:56;3.10;;;1.50;;
27495;SDS011;14929;51.336;9.416;2022-09-17T08:07:24;7.65;;;1.90;;
27495;SDS011;14929;51.336;9.416;2022-09-17T08:09:51;4.82;;;1.95;;
27495;SDS011;14929;51.336;9.416;2022-09-17T08:12:19;4.72;;;2.28;;
27495;SDS011;14929;51.336;9.416;2022-09-17T08:14:48;6.25;;;2.10;;
27495;SDS011;14929;51.336;9.416;2022-09-17T08:17:15;4.82;;;2.30;;
27495;SDS011;14929;51.336;9.416;2022-09-17T08:19:43;5.38;;;1.88;;
27495;SDS011;14929;51.336;9.416;2022-09-17T08:22:10;8.63;;;2.70;;
27495;SDS011;14929;51.336;9.416;2022-09-17T08:24:38;5.32;;;1.80;;
27495;SDS011;14929;51.336;9.416;2022-09-17T08:27:06;4.38;;;1.67;;
27495;SDS011;14929;51.336;9.416;2022-09-17T08:29:34;10.13;;;2.22;;
27495;SDS011;14929;51.336;9.416;2022-09-17T08:32:03;9.32;;;2.63;;
27495;SDS011;14929;51.336;9.416;2022-09-17T08:34:30;8.65;;;1.63;;
27495;SDS011;14929;51.336;9.416;2022-09-17T08:36:58;4.55;;;1.38;;
27495;SDS011;14929;51.336;9.416;2022-09-17T08:39:25;7.18;;;1.90;;
27495;SDS011;14929;51.336;9.416;2022-09-17T08:41:54;9.32;;;2.30;;
27495;SDS011;14929;51.336;9.416;2022-09-17T08:44:33;3.63;;;1.92;;
27495;SDS011;14929;51.336;9.416;2022-09-17T08:47:10;3.70;;;2.08;;
27495;SDS011;14929;51.336;9.416;2022-09-17T08:49:45;4.63;;;1.30;;
27495;SDS011;14929;51.336;9.416;2022-09-17T08:55:36;2.95;;;1.40;;
27495;SDS011;14929;51.336;9.416;2022-09-17T08:58:22;3.15;;;1.77;;
27495;SDS011;14929;51.336;9.416;2022-09-17T09:01:15;2.58;;;1.77;;
27495;SDS011;14929;51.336;9.416;2022-09-17T09:04:03;4.63;;;2.05;;
27495;SDS011;14929;51.336;9.416;2022-09-17T09:06:43;5.70;;;1.85;;
27495;SDS011;14929;51.336;9.416;2022-09-17T09:09:15;6.32;;;1.77;;
27495;SDS011;14929;51.336;9.416;2022-09-17T09:11:45;2.72;;;1.63;;
27495;SDS011;14929;51.336;9.416;2022-09-17T09:14:16;5.53;;;1.60;;
27495;SDS011;14929;51.336;9.416;2022-09-17T09:16:46;4.53;;;1.60;;
27495;SDS011;14929;51.336;9.416;2022-09-17T09:19:18;4.60;;;1.98;;
27495;SDS011;14929;51.336;9.416;2022-09-17T09:21:56;5.15;;;1.65;;
27495;SDS011;14929;51.336;9.416;2022-09-17T09:24:31;4.90;;;1.83;;
27495;SDS011;14929;51.336;9.416;2022-09-17T09:27:11;5.88;;;1.65;;
27495;SDS011;14929;51.336;9.416;2022-09-17T09:29:45;5.55;;;1.65;;
27495;SDS011;14929;51.336;9.416;2022-09-17T09:32:23;2.13;;;1.42;;
27495;SDS011;14929;51.336;9.416;2022-09-17T09:35:10;4.13;;;2.03;;
27495;SDS011;14929;51.336;9.416;2022-09-17T09:37:43;4.53;;;1.65;;
27495;SDS011;14929;51.336;9.416;2022-09-17T09:40:24;5.47;;;1.80;;
27495;SDS011;14929;51.336;9.416;2022-09-17T09:43:04;7.32;;;1.70;;
27495;SDS011;14929;51.336;9.416;2022-09-17T09:45:51;3.25;;;1.50;;
27495;SDS011;14929;51.336;9.416;2022-09-17T09:48:44;3.17;;;1.40;;
27495;SDS011;14929;51.336;9.416;2022-09-17T09:51:27;9.65;;;2.38;;
27495;SDS011;14929;51.336;9.416;2022-09-17T09:54:08;3.70;;;1.83;;
27495;SDS011;14929;51.336;9.416;2022-09-17T09:56:51;6.15;;;2.63;;
27495;SDS011;14929;51.336;9.416;2022-09-17T09:59:22;2.30;;;1.63;;
27495;SDS011;14929;51.336;9.416;2022-09-17T10:01:50;2.35;;;1.30;;
27495;SDS011;14929;51.336;9.416;2022-09-17T10:04:19;11.32;;;2.58;;
27495;SDS011;14929;51.336;9.416;2022-09-17T10:06:50;1.92;;;1.20;;
27495;SDS011;14929;51.336;9.416;2022-09-17T10:09:19;6.53;;;1.40;;
27495;SDS011;14929;51.336;9.416;2022-09-17T10:14:43;2.75;;;1.33;;
27495;SDS011;14929;51.336;9.416;2022-09-17T10:17:16;2.85;;;1.40;;
27495;SDS011;14929;51.336;9.416;2022-09-17T10:19:46;6.07;;;2.20;;
27495;SDS011;14929;51.336;9.416;2022-09-17T10:22:40;2.70;;;1.58;;
27495;SDS011;14929;51.336;9.416;2022-09-17T10:25:19;3.15;;;1.40;;
27495;SDS011;14929;51.336;9.416;2022-09-17T10:27:54;3.95;;;1.48;;
27495;SDS011;14929;51.336;9.416;2022-09-17T10:30:22;5.30;;;1.60;;
27495;SDS011;14929;51.336;9.416;2022-09-17T10:35:56;2.63;;;1.25;;
27495;SDS011;14929;51.336;9.416;2022-09-17T10:38:29;3.45;;;1.50;;
27495;SDS011;14929;51.336;9.416;2022-09-17T10:43:49;1.52;;;1.08;;
27495;SDS011;14929;51.336;9.416;2022-09-17T10:46:17;4.07;;;1.60;;
27495;SDS011;14929;51.336;9.416;2022-09-17T10:48:50;3.33;;;2.08;;
27495;SDS011;14929;51.336;9.416;2022-09-17T10:51:30;3.17;;;1.52;;
27495;SDS011;14929;51.336;9.416;2022-09-17T10:57:29;3.67;;;1.17;;
27495;SDS011;14929;51.336;9.416;2022-09-17T11:00:23;5.63;;;1.55;;
27495;SDS011;14929;51.336;9.416;2022-09-17T11:06:12;1.92;;;1.30;;
27495;SDS011;14929;51.336;9.416;2022-09-17T11:09:14;1.90;;;1.10;;
27495;SDS011;14929;51.336;9.416;2022-09-17T11:11:56;4.88;;;1.10;;
27495;SDS011;14929;51.336;9.416;2022-09-17T11:14:42;2.83;;;1.10;;
27495;SDS011;14929;51.336;9.416;2022-09-17T11:20:21;2.17;;;0.93;;
27495;SDS011;14929;51.336;9.416;2022-09-17T11:23:07;3.35;;;1.15;;
27495;SDS011;14929;51.336;9.416;2022-09-17T11:25:53;4.22;;;1.25;;
27495;SDS011;14929;51.336;9.416;2022-09-17T11:28:28;2.80;;;1.30;;
27495;SDS011;14929;51.336;9.416;2022-09-17T11:31:15;2.70;;;1.15;;
27495;SDS011;14929;51.336;9.416;2022-09-17T11:34:09;1.58;;;1.05;;
27495;SDS011;14929;51.336;9.416;2022-09-17T11:36:56;4.43;;;1.20;;
27495;SDS011;14929;51.336;9.416;2022-09-17T11:39:31;0.90;;;0.82;;
27495;SDS011;14929;51.336;9.416;2022-09-17T11:42:02;2.67;;;1.38;;
27495;SDS011;14929;51.336;9.416;2022-09-17T11:44:46;2.88;;;1.05;;
27495;SDS011;14929;51.336;9.416;2022-09-17T11:47:18;1.10;;;0.80;;
27495;SDS011;14929;51.336;9.416;2022-09-17T11:49:49;2.35;;;0.98;;
27495;SDS011;14929;51.336;9.416;2022-09-17T11:52:20;0.70;;;0.70;;
27495;SDS011;14929;51.336;9.416;2022-09-17T11:54:52;1.00;;;0.90;;
27495;SDS011;14929;51.336;9.416;2022-09-17T11:57:24;4.03;;;1.63;;
27495;SDS011;14929;51.336;9.416;2022-09-17T12:00:00;1.63;;;0.80;;
27495;SDS011;14929;51.336;9.416;2022-09-17T12:02:43;1.85;;;0.90;;
27495;SDS011;14929;51.336;9.416;2022-09-17T12:05:17;4.80;;;1.50;;
27495;SDS011;14929;51.336;9.416;2022-09-17T12:07:47;1.63;;;1.00;;
27495;SDS011;14929;51.336;9.416;2022-09-17T12:10:32;1.50;;;0.90;;
27495;SDS011;14929;51.336;9.416;2022-09-17T12:13:09;3.28;;;0.82;;
27495;SDS011;14929;51.336;9.416;2022-09-17T12:15:46;2.50;;;0.88;;
27495;SDS011;14929;51.336;9.416;2022-09-17T12:18:18;2.08;;;1.27;;
27495;SDS011;14929;51.336;9.416;2022-09-17T12:20:54;1.63;;;1.00;;
27495;SDS011;14929;51.336;9.416;2022-09-17T12:23:26;1.77;;;0.93;;
27495;SDS011;14929;51.336;9.416;2022-09-17T12:26:04;0.93;;;0.85;;
27495;SDS011;14929;51.336;9.416;2022-09-17T12:28:48;1.52;;;0.80;;
27495;SDS011;14929;51.336;9.416;2022-09-17T12:31:21;1.48;;;0.80;;
27495;SDS011;14929;51.336;9.416;2022-09-17T12:33:54;1.65;;;0.70;;
27495;SDS011;14929;51.336;9.416;2022-09-17T12:36:31;1.88;;;0.75;;
27495;SDS011;14929;51.336;9.416;2022-09-17T12:39:28;1.70;;;0.88;;
27495;SDS011;14929;51.336;9.416;2022-09-17T12:42:20;1.10;;;0.80;;
27495;SDS011;14929;51.336;9.416;2022-09-17T12:45:19;2.35;;;0.90;;
27495;SDS011;14929;51.336;9.416;2022-09-17T12:48:05;0.70;;;0.70;;
27495;SDS011;14929;51.336;9.416;2022-09-17T12:50:47;1.27;;;0.80;;
27495;SDS011;14929;51.336;9.416;2022-09-17T12:53:26;1.17;;;0.90;;
27495;SDS011;14929;51.336;9.416;2022-09-17T12:55:58;2.47;;;1.00;;
27495;SDS011;14929;51.336;9.416;2022-09-17T12:58:51;3.47;;;0.90;;
27495;SDS011;14929;51.336;9.416;2022-09-17T13:01:37;1.73;;;0.80;;
27495;SDS011;14929;51.336;9.416;2022-09-17T13:04:16;0.98;;;0.70;;
27495;SDS011;14929;51.336;9.416;2022-09-17T13:06:58;0.73;;;0.73;;
27495;SDS011;14929;51.336;9.416;2022-09-17T13:09:54;1.05;;;0.80;;
27495;SDS011;14929;51.336;9.416;2022-09-17T13:12:46;0.70;;;0.55;;
27495;SDS011;14929;51.336;9.416;2022-09-17T13:15:32;0.63;;;0.60;;
27495;SDS011;14929;51.336;9.416;2022-09-17T13:18:11;1.13;;;0.70;;
27495;SDS011;14929;51.336;9.416;2022-09-17T13:20:49;0.57;;;0.57;;
27495;SDS011;14929;51.336;9.416;2022-09-17T13:23:33;1.02;;;1.00;;
27495;SDS011;14929;51.336;9.416;2022-09-17T13:26:05;0.75;;;0.50;;
27495;SDS011;14929;51.336;9.416;2022-09-17T13:28:37;0.80;;;0.60;;
27495;SDS011;14929;51.336;9.416;2022-09-17T13:31:07;1.00;;;0.70;;
27495;SDS011;14929;51.336;9.416;2022-09-17T13:33:55;1.00;;;0.80;;
27495;SDS011;14929;51.336;9.416;2022-09-17T13:36:44;0.90;;;0.50;;
27495;SDS011;14929;51.336;9.416;2022-09-17T13:42:13;0.75;;;0.52;;
27495;SDS011;14929;51.336;9.416;2022-09-17T13:44:48;1.33;;;0.95;;
27495;SDS011;14929;51.336;9.416;2022-09-17T13:47:20;1.95;;;0.75;;
27495;SDS011;14929;51.336;9.416;2022-09-17T13:49:52;3.63;;;0.70;;
27495;SDS011;14929;51.336;9.416;2022-09-17T13:52:35;0.77;;;0.77;;
27495;SDS011;14929;51.336;9.416;2022-09-17T13:55:06;1.27;;;0.70;;
27495;SDS011;14929;51.336;9.416;2022-09-17T13:57:44;1.27;;;0.70;;
27495;SDS011;14929;51.336;9.416;2022-09-17T14:09:30;0.93;;;0.73;;
27495;SDS011;14929;51.336;9.416;2022-09-17T14:12:47;0.60;;;0.60;;
27495;SDS011;14929;51.336;9.416;2022-09-17T14:15:54;2.92;;;0.70;;
27495;SDS011;14929;51.336;9.416;2022-09-17T14:18:33;1.17;;;0.40;;
27495;SDS011;14929;51.336;9.416;2022-09-17T14:21:22;1.40;;;0.77;;
27495;SDS011;14929;51.336;9.416;2022-09-17T14:23:56;1.20;;;0.65;;
27495;SDS011;14929;51.336;9.416;2022-09-17T14:29:40;4.82;;;1.90;;
27495;SDS011;14929;51.336;9.416;2022-09-17T14:32:34;0.60;;;0.60;;
27495;SDS011;14929;51.336;9.416;2022-09-17T14:35:13;1.23;;;0.68;;
27495;SDS011;14929;51.336;9.416;2022-09-17T14:37:46;3.03;;;0.77;;
27495;SDS011;14929;51.336;9.416;2022-09-17T14:40:17;0.52;;;0.52;;
27495;SDS011;14929;51.336;9.416;2022-09-17T14:42:49;1.75;;;0.60;;
27495;SDS011;14929;51.336;9.416;2022-09-17T14:45:22;0.40;;;0.40;;
27495;SDS011;14929;51.336;9.416;2022-09-17T14:51:10;1.10;;;0.40;;
27495;SDS011;14929;51.336;9.416;2022-09-17T14:54:05;0.40;;;0.40;;
27495;SDS011;14929;51.336;9.416;2022-09-17T14:56:49;0.40;;;0.40;;
27495;SDS011;14929;51.336;9.416;2022-09-17T14:59:40;0.50;;;0.50;;
27495;SDS011;14929;51.336;9.416;2022-09-17T15:02:20;1.15;;;0.60;;
27495;SDS011;14929;51.336;9.416;2022-09-17T15:04:58;1.35;;;0.80;;
27495;SDS011;14929;51.336;9.416;2022-09-17T15:07:27;0.90;;;0.90;;
27495;SDS011;14929;51.336;9.416;2022-09-17T15:10:04;0.80;;;0.80;;
27495;SDS011;14929;51.336;9.416;2022-09-17T15:12:34;0.70;;;0.70;;
27495;SDS011;14929;51.336;9.416;2022-09-17T15:15:04;0.80;;;0.80;;
27495;SDS011;14929;51.336;9.416;2022-09-17T15:17:35;2.08;;;0.90;;
27495;SDS011;14929;51.336;9.416;2022-09-17T15:20:03;1.67;;;0.82;;
27495;SDS011;14929;51.336;9.416;2022-09-17T15:22:35;0.60;;;0.60;;
27495;SDS011;14929;51.336;9.416;2022-09-17T15:25:04;0.60;;;0.60;;
27495;SDS011;14929;51.336;9.416;2022-09-17T15:27:35;0.60;;;0.60;;
27495;SDS011;14929;51.336;9.416;2022-09-17T15:30:08;0.50;;;0.50;;
27495;SDS011;14929;51.336;9.416;2022-09-17T15:32:39;0.70;;;0.65;;
27495;SDS011;14929;51.336;9.416;2022-09-17T15:37:54;1.77;;;1.00;;
27495;SDS011;14929;51.336;9.416;2022-09-17T15:40:27;1.27;;;0.80;;
27495;SDS011;14929;51.336;9.416;2022-09-17T15:43:01;0.73;;;0.70;;
27495;SDS011;14929;51.336;9.416;2022-09-17T15:45:32;1.13;;;0.88;;
27495;SDS011;14929;51.336;9.416;2022-09-17T15:48:03;4.18;;;1.17;;
27495;SDS011;14929;51.336;9.416;2022-09-17T15:50:31;0.70;;;0.70;;
27495;SDS011;14929;51.336;9.416;2022-09-17T15:53:13;2.08;;;1.90;;
27495;SDS011;14929;51.336;9.416;2022-09-17T15:55:57;2.22;;;2.03;;
27495;SDS011;14929;51.336;9.416;2022-09-17T15:58:27;0.70;;;0.70;;
27495;SDS011;14929;51.336;9.416;2022-09-17T16:04:17;0.95;;;0.80;;
27495;SDS011;14929;51.336;9.416;2022-09-17T16:06:56;0.75;;;0.70;;
27495;SDS011;14929;51.336;9.416;2022-09-17T16:09:47;1.27;;;1.10;;
27495;SDS011;14929;51.336;9.416;2022-09-17T16:12:16;0.80;;;0.65;;
27495;SDS011;14929;51.336;9.416;2022-09-17T16:14:47;4.07;;;1.08;;
27495;SDS011;14929;51.336;9.416;2022-09-17T16:17:22;1.48;;;0.70;;
27495;SDS011;14929;51.336;9.416;2022-09-17T16:20:04;3.58;;;1.17;;
27495;SDS011;14929;51.336;9.416;2022-09-17T16:22:34;1.05;;;0.77;;
27495;SDS011;14929;51.336;9.416;2022-09-17T16:25:02;0.95;;;0.90;;